createdAt,value
2023-05-19T00:01:51.525Z,8.32
2023-05-19T00:04:23.976Z,8.75
2023-05-19T00:06:56.944Z,7.65
2023-05-19T00:09:28.932Z,9.07
2023-05-19T00:12:03.420Z,9.45
2023-05-19T00:14:36.405Z,6.32
2023-05-19T00:17:08.231Z,5.88
2023-05-19T00:19:39.801Z,9.23
2023-05-19T00:22:10.722Z,7.43
2023-05-19T00:24:42.238Z,7.65
2023-05-19T00:27:16.050Z,9.82
2023-05-19T00:29:47.260Z,8.70
2023-05-19T00:32:18.830Z,6.90
2023-05-19T00:34:50.235Z,11.20
2023-05-19T00:37:23.141Z,5.88
2023-05-19T00:39:54.397Z,7.95
2023-05-19T00:44:59.263Z,10.35
2023-05-19T00:47:30.236Z,8.38
2023-05-19T00:50:02.245Z,8.73
2023-05-19T00:52:33.368Z,7.68
2023-05-19T00:55:05.581Z,8.38
2023-05-19T00:57:39.270Z,7.75
2023-05-19T01:00:12.157Z,9.90
2023-05-19T01:02:43.881Z,7.55
2023-05-19T01:05:15.840Z,8.82
2023-05-19T01:07:47.458Z,6.10
2023-05-19T01:10:18.726Z,9.18
2023-05-19T01:15:24.196Z,8.05
2023-05-19T01:18:01.993Z,9.43
2023-05-19T01:20:41.902Z,8.10
2023-05-19T01:23:27.350Z,8.55
2023-05-19T01:26:29.863Z,6.75
2023-05-19T01:29:24.349Z,6.05
2023-05-19T01:32:02.349Z,10.63
2023-05-19T01:34:34.871Z,7.55
2023-05-19T01:37:12.145Z,7.07
2023-05-19T01:39:47.228Z,9.88
2023-05-19T01:42:19.829Z,11.75
2023-05-19T01:44:51.520Z,9.57
2023-05-19T01:47:26.469Z,7.05
2023-05-19T01:49:58.131Z,7.75
2023-05-19T01:52:31.140Z,9.27
2023-05-19T01:57:39.317Z,8.68
2023-05-19T02:00:16.929Z,10.70
2023-05-19T02:03:02.578Z,8.15
2023-05-19T02:05:41.527Z,8.77
2023-05-19T02:08:19.536Z,6.82
2023-05-19T02:10:58.412Z,7.05
2023-05-19T02:13:33.629Z,6.30
2023-05-19T02:16:08.704Z,6.28
2023-05-19T02:18:45.776Z,5.82
2023-05-19T02:21:16.971Z,6.80
2023-05-19T02:23:49.852Z,8.90
2023-05-19T02:26:25.830Z,6.72
2023-05-19T02:28:57.014Z,6.30
2023-05-19T02:31:28.884Z,5.70
2023-05-19T02:34:03.697Z,5.65
2023-05-19T02:36:37.456Z,6.18
2023-05-19T02:39:09.159Z,8.85
2023-05-19T02:41:40.189Z,6.65
2023-05-19T02:44:11.818Z,8.63
2023-05-19T02:46:42.738Z,6.28
2023-05-19T02:49:16.672Z,5.40
2023-05-19T02:51:47.760Z,7.43
2023-05-19T02:54:19.020Z,6.93
2023-05-19T02:59:20.910Z,9.07
2023-05-19T03:04:25.665Z,8.07
2023-05-19T03:06:57.732Z,5.22
2023-05-19T03:09:29.331Z,6.57
2023-05-19T03:14:38.042Z,6.78
2023-05-19T03:17:10.964Z,6.65
2023-05-19T03:19:45.987Z,5.97
2023-05-19T03:22:16.893Z,3.58
2023-05-19T03:24:51.361Z,5.80
2023-05-19T03:27:22.537Z,3.80
2023-05-19T03:29:58.378Z,7.40
2023-05-19T03:32:29.853Z,5.93
2023-05-19T03:35:07.630Z,7.47
2023-05-19T03:37:39.509Z,4.55
2023-05-19T03:40:13.033Z,5.22
2023-05-19T03:42:46.563Z,6.65
2023-05-19T03:45:18.008Z,5.45
2023-05-19T03:47:52.968Z,5.50
2023-05-19T03:50:49.797Z,5.43
2023-05-19T03:53:26.681Z,4.90
2023-05-19T03:55:57.977Z,8.65
2023-05-19T03:58:30.351Z,4.55
2023-05-19T04:01:01.611Z,4.05
2023-05-19T04:03:32.692Z,6.53
2023-05-19T04:06:06.886Z,6.07
2023-05-19T04:08:37.750Z,6.25
2023-05-19T04:11:09.187Z,6.25
2023-05-19T04:18:42.683Z,5.68
2023-05-19T04:21:16.510Z,7.43
2023-05-19T04:23:47.537Z,4.65
2023-05-19T04:26:19.955Z,7.13
2023-05-19T04:28:53.025Z,4.30
2023-05-19T04:31:24.544Z,6.88
2023-05-19T04:33:56.115Z,5.60
2023-05-19T04:36:31.606Z,6.60
2023-05-19T04:39:03.356Z,5.78
2023-05-19T04:41:37.331Z,6.43
2023-05-19T04:44:10.649Z,5.57
2023-05-19T04:46:43.088Z,6.55
2023-05-19T04:49:14.807Z,5.35
2023-05-19T04:51:51.532Z,6.18
2023-05-19T04:56:59.905Z,3.45
2023-05-19T04:59:35.905Z,54.90
2023-05-19T05:02:08.207Z,35.80
2023-05-19T05:04:44.350Z,4.82
2023-05-19T05:07:18.621Z,4.78
2023-05-19T05:09:52.081Z,4.28
2023-05-19T05:12:24.652Z,3.92
2023-05-19T05:14:56.564Z,4.38
2023-05-19T05:17:28.637Z,3.08
2023-05-19T05:20:01.661Z,3.45
2023-05-19T05:22:36.890Z,5.05
2023-05-19T05:25:09.184Z,2.53
2023-05-19T05:27:41.094Z,5.28
2023-05-19T05:30:13.537Z,4.25
2023-05-19T05:32:46.585Z,9.90
2023-05-19T05:35:32.649Z,8.48
2023-05-19T05:38:09.185Z,7.45
2023-05-19T05:40:41.361Z,8.30
2023-05-19T05:43:16.227Z,5.78
2023-05-19T05:45:52.762Z,5.05
2023-05-19T05:48:25.442Z,5.63
2023-05-19T05:50:57.822Z,7.47
2023-05-19T05:53:38.881Z,5.07
2023-05-19T05:56:11.257Z,5.80
2023-05-19T05:58:49.873Z,5.68
2023-05-19T06:01:21.269Z,7.57
2023-05-19T06:03:52.712Z,8.40
2023-05-19T06:06:27.030Z,5.10
2023-05-19T06:09:02.335Z,3.58
2023-05-19T06:11:34.021Z,3.83
2023-05-19T06:14:05.505Z,8.00
2023-05-19T06:17:05.781Z,6.13
2023-05-19T06:19:37.294Z,4.93
2023-05-19T06:22:08.364Z,5.15
2023-05-19T06:24:42.624Z,5.03
2023-05-19T06:27:14.025Z,6.57
2023-05-19T06:29:45.337Z,4.40
2023-05-19T06:32:17.168Z,6.80
2023-05-19T06:34:54.339Z,4.50
2023-05-19T06:37:26.158Z,3.53
2023-05-19T06:40:00.208Z,4.68
2023-05-19T06:42:31.519Z,4.13
2023-05-19T06:45:13.353Z,5.90
2023-05-19T06:47:45.424Z,6.03
2023-05-19T06:50:17.393Z,6.45
2023-05-19T06:52:50.164Z,6.05
2023-05-19T06:55:24.256Z,4.47
2023-05-19T06:57:55.184Z,8.73
2023-05-19T07:00:26.856Z,10.63
2023-05-19T07:02:58.605Z,7.45
2023-05-19T07:05:30.052Z,6.47
2023-05-19T07:08:02.870Z,5.82
2023-05-19T07:10:36.808Z,5.28
2023-05-19T07:13:12.548Z,5.38
2023-05-19T07:15:43.932Z,7.18
2023-05-19T07:20:45.853Z,8.55
2023-05-19T07:25:53.382Z,6.05
2023-05-19T07:28:24.247Z,6.72
2023-05-19T07:30:55.504Z,8.52
2023-05-19T07:33:29.780Z,9.52
2023-05-19T07:36:01.241Z,6.10
2023-05-19T07:38:34.899Z,6.90
2023-05-19T07:41:09.110Z,5.88
2023-05-19T07:43:40.592Z,4.93
2023-05-19T07:46:12.101Z,9.95
2023-05-19T07:53:45.104Z,5.45
2023-05-19T07:56:19.053Z,6.88
2023-05-19T07:58:50.249Z,5.88
2023-05-19T08:01:21.492Z,7.47
2023-05-19T08:06:23.603Z,5.85
2023-05-19T08:11:28.497Z,2.88
2023-05-19T08:13:59.386Z,4.50
2023-05-19T08:16:30.886Z,4.10
2023-05-19T08:19:02.980Z,3.47
2023-05-19T08:21:34.836Z,3.33
2023-05-19T08:24:06.630Z,3.40
2023-05-19T08:26:40.641Z,5.65
2023-05-19T08:29:11.784Z,4.82
2023-05-19T08:31:43.128Z,5.50
2023-05-19T08:34:14.004Z,3.35
2023-05-19T08:36:45.583Z,4.80
2023-05-19T08:39:19.435Z,5.38
2023-05-19T08:41:53.683Z,7.43
2023-05-19T08:44:24.849Z,4.15
2023-05-19T08:46:58.658Z,5.28
2023-05-19T08:49:31.343Z,6.05
2023-05-19T08:52:11.858Z,2.28
2023-05-19T08:54:51.150Z,4.63
2023-05-19T08:57:28.214Z,4.55
2023-05-19T09:00:00.883Z,7.90
2023-05-19T09:02:32.737Z,4.47
2023-05-19T09:05:04.452Z,4.03
2023-05-19T09:07:38.151Z,3.92
2023-05-19T09:10:14.564Z,3.38
2023-05-19T09:12:50.496Z,3.28
2023-05-19T09:15:22.032Z,3.33
2023-05-19T09:18:09.306Z,9.85
2023-05-19T09:20:42.580Z,4.72
2023-05-19T09:23:17.064Z,4.63
2023-05-19T09:26:03.309Z,4.18
2023-05-19T09:28:38.817Z,5.63
2023-05-19T09:31:10.854Z,4.28
2023-05-19T09:33:45.924Z,3.70
2023-05-19T09:36:17.680Z,4.10
2023-05-19T09:38:49.568Z,3.55
2023-05-19T09:41:20.573Z,2.90
2023-05-19T09:43:58.199Z,6.38
2023-05-19T09:46:30.534Z,3.55
2023-05-19T09:49:04.616Z,4.25
2023-05-19T09:51:36.316Z,8.23
2023-05-19T09:54:07.710Z,2.95
2023-05-19T09:56:39.797Z,5.97
2023-05-19T09:59:14.433Z,3.30
2023-05-19T10:01:47.063Z,2.70
2023-05-19T10:04:19.699Z,3.72
2023-05-19T10:06:53.941Z,4.75
2023-05-19T10:09:27.857Z,2.72
2023-05-19T10:11:59.888Z,2.10
2023-05-19T10:14:33.808Z,4.80
2023-05-19T10:17:04.844Z,3.70
2023-05-19T10:19:37.376Z,4.72
2023-05-19T10:22:08.968Z,3.35
2023-05-19T10:24:40.329Z,3.10
2023-05-19T10:27:14.739Z,4.70
2023-05-19T10:29:53.159Z,5.20
2023-05-19T10:32:28.556Z,4.82
2023-05-19T10:35:32.466Z,5.68
2023-05-19T10:38:16.636Z,2.72
2023-05-19T10:41:06.035Z,6.03
2023-05-19T10:43:52.821Z,3.47
2023-05-19T10:46:30.368Z,3.92
2023-05-19T10:49:02.486Z,5.43
2023-05-19T10:51:34.936Z,4.28
2023-05-19T10:54:08.477Z,2.00
2023-05-19T10:56:43.277Z,7.32
2023-05-19T10:59:34.488Z,7.82
2023-05-19T11:02:11.510Z,7.80
2023-05-19T11:04:50.265Z,4.80
2023-05-19T11:07:25.065Z,6.57
2023-05-19T11:09:56.548Z,8.30
2023-05-19T11:12:28.053Z,4.07
2023-05-19T11:15:01.307Z,7.97
2023-05-19T11:17:35.989Z,3.70
2023-05-19T11:20:11.286Z,6.97
2023-05-19T11:22:43.740Z,2.63
2023-05-19T11:25:14.861Z,5.22
2023-05-19T11:27:49.869Z,4.57
2023-05-19T11:30:21.959Z,2.85
2023-05-19T11:32:58.087Z,3.42
2023-05-19T11:35:31.447Z,2.00
2023-05-19T11:38:04.626Z,3.35
2023-05-19T11:40:36.262Z,2.97
2023-05-19T11:43:07.646Z,4.30
2023-05-19T11:45:38.832Z,2.45
2023-05-19T11:48:16.278Z,2.58
2023-05-19T11:50:47.516Z,4.78
2023-05-19T11:53:20.167Z,2.40
2023-05-19T11:55:52.156Z,4.80
2023-05-19T11:58:30.035Z,9.00
2023-05-19T12:01:04.318Z,2.47
2023-05-19T12:03:38.503Z,4.50
2023-05-19T12:06:10.610Z,7.43
2023-05-19T12:08:42.051Z,3.78
2023-05-19T12:11:13.748Z,5.18
2023-05-19T12:13:45.225Z,3.53
2023-05-19T12:16:16.438Z,2.60
2023-05-19T12:18:50.420Z,3.05
2023-05-19T12:21:21.717Z,3.17
2023-05-19T12:23:53.050Z,4.55
2023-05-19T12:26:24.466Z,4.13
2023-05-19T12:28:55.707Z,2.95
2023-05-19T12:34:04.797Z,3.80
2023-05-19T12:36:35.698Z,5.70
2023-05-19T12:39:09.798Z,5.53
2023-05-19T12:41:40.780Z,2.90
2023-05-19T12:44:18.639Z,5.53
2023-05-19T12:46:49.578Z,4.63
2023-05-19T12:49:23.608Z,4.72
2023-05-19T12:51:56.007Z,3.95
2023-05-19T12:54:27.499Z,7.05
2023-05-19T12:57:01.776Z,4.65
2023-05-19T12:59:38.981Z,7.82
2023-05-19T13:02:10.119Z,2.90
2023-05-19T13:04:44.740Z,4.53
2023-05-19T13:07:15.650Z,13.57
2023-05-19T13:09:46.874Z,8.25
2023-05-19T13:14:48.766Z,7.75
2023-05-19T13:17:19.797Z,21.75
2023-05-19T13:19:53.833Z,13.57
2023-05-19T13:22:24.769Z,5.28
2023-05-19T13:24:59.166Z,7.20
2023-05-19T13:27:30.052Z,5.03
2023-05-19T13:30:01.384Z,3.90
2023-05-19T13:32:32.476Z,6.72
2023-05-19T13:35:07.059Z,14.43
2023-05-19T13:37:38.085Z,7.28
2023-05-19T13:40:11.114Z,4.63
2023-05-19T13:42:42.440Z,13.05
2023-05-19T13:45:14.359Z,13.25
2023-05-19T13:47:45.494Z,5.70
2023-05-19T13:50:19.310Z,9.60
2023-05-19T13:52:50.284Z,2.90
2023-05-19T13:55:21.708Z,9.65
2023-05-19T13:57:52.782Z,2.90
2023-05-19T14:00:24.410Z,5.40
2023-05-19T14:02:55.906Z,4.40
2023-05-19T14:05:31.389Z,5.90
2023-05-19T14:08:04.143Z,4.70
2023-05-19T14:10:35.861Z,2.90
2023-05-19T14:13:31.573Z,5.40
2023-05-19T14:16:05.062Z,4.00
2023-05-19T14:18:36.051Z,4.30
2023-05-19T14:21:09.926Z,4.57
2023-05-19T14:23:43.463Z,7.55
2023-05-19T14:26:14.876Z,3.90
2023-05-19T14:28:46.026Z,5.45
2023-05-19T14:31:22.661Z,12.15
2023-05-19T14:33:54.597Z,3.38
2023-05-19T14:36:29.593Z,4.10
2023-05-19T14:39:01.933Z,3.35
2023-05-19T14:41:33.145Z,3.58
2023-05-19T14:44:04.129Z,6.50
2023-05-19T14:46:35.538Z,3.72
2023-05-19T14:49:06.883Z,4.45
2023-05-19T14:51:40.778Z,7.88
2023-05-19T14:54:11.663Z,7.38
2023-05-19T14:56:42.851Z,6.72
2023-05-19T15:01:44.827Z,10.32
2023-05-19T15:04:15.964Z,6.05
2023-05-19T15:06:58.257Z,6.22
2023-05-19T15:09:40.024Z,5.60
2023-05-19T15:12:11.430Z,8.43
2023-05-19T15:14:42.299Z,13.38
2023-05-19T15:17:13.701Z,5.40
2023-05-19T15:19:47.907Z,5.03
2023-05-19T15:22:22.269Z,8.32
2023-05-19T15:24:53.413Z,7.47
2023-05-19T15:27:25.426Z,7.00
2023-05-19T15:29:56.625Z,7.47
2023-05-19T15:32:28.113Z,7.95
2023-05-19T15:34:59.051Z,7.40
2023-05-19T15:37:33.031Z,7.18
2023-05-19T15:40:04.025Z,8.50
2023-05-19T15:42:35.251Z,12.27
2023-05-19T15:47:37.127Z,10.73
2023-05-19T15:52:42.258Z,11.38
2023-05-19T15:55:13.661Z,12.35
2023-05-19T15:57:45.044Z,9.88
2023-05-19T16:00:17.426Z,15.23
2023-05-19T16:02:49.023Z,17.42
2023-05-19T16:05:20.324Z,15.88
2023-05-19T16:07:54.165Z,15.60
2023-05-19T16:10:25.066Z,8.35
2023-05-19T16:12:56.429Z,12.32
2023-05-19T16:15:27.372Z,24.98
2023-05-19T16:17:58.868Z,11.13
2023-05-19T16:20:30.165Z,6.32
2023-05-19T16:23:04.057Z,5.22
2023-05-19T16:25:35.266Z,13.23
2023-05-19T16:28:06.819Z,6.93
2023-05-19T16:30:38.360Z,8.63
2023-05-19T16:33:09.697Z,5.40
2023-05-19T16:38:14.203Z,9.98
2023-05-19T16:40:45.268Z,4.35
2023-05-19T16:43:16.532Z,3.50
2023-05-19T16:48:18.416Z,8.40
2023-05-19T16:50:51.779Z,5.57
2023-05-19T16:53:25.670Z,2.78
2023-05-19T16:55:56.852Z,3.42
2023-05-19T16:58:29.602Z,5.88
2023-05-19T17:01:01.971Z,11.55
2023-05-19T17:03:35.963Z,7.30
2023-05-19T17:06:07.245Z,2.25
2023-05-19T17:08:41.121Z,5.65
2023-05-19T17:11:13.731Z,10.60
2023-05-19T17:13:46.803Z,8.05
2023-05-19T17:16:17.901Z,5.68
2023-05-19T17:18:50.781Z,5.68
2023-05-19T17:21:21.884Z,5.20
2023-05-19T17:23:56.392Z,4.22
2023-05-19T17:26:27.623Z,6.75
2023-05-19T17:28:59.126Z,2.95
2023-05-19T17:31:30.240Z,5.57
2023-05-19T17:34:01.494Z,7.72
2023-05-19T17:39:06.334Z,7.07
2023-05-19T17:41:37.324Z,5.25
2023-05-19T17:44:09.317Z,5.13
2023-05-19T17:46:40.403Z,5.05
2023-05-19T17:49:13.267Z,7.40
2023-05-19T17:51:44.944Z,6.22
2023-05-19T17:54:19.529Z,12.45
2023-05-19T17:56:51.348Z,62.55
2023-05-19T17:59:23.560Z,45.97
2023-05-19T18:01:56.001Z,27.30
2023-05-19T18:04:28.141Z,24.40
2023-05-19T18:06:59.918Z,23.23
2023-05-19T18:09:35.983Z,12.18
2023-05-19T18:12:07.270Z,9.35
2023-05-19T18:14:38.490Z,8.82
2023-05-19T18:19:40.346Z,7.95
2023-05-19T18:24:47.466Z,7.93
2023-05-19T18:27:18.399Z,6.95
2023-05-19T18:29:49.831Z,5.72
2023-05-19T18:32:21.139Z,6.32
2023-05-19T18:34:52.552Z,7.18
2023-05-19T18:37:24.078Z,11.00
2023-05-19T18:39:58.401Z,9.43
2023-05-19T18:42:29.407Z,8.40
2023-05-19T18:45:00.715Z,11.43
2023-05-19T18:50:05.916Z,19.80
2023-05-19T18:52:36.981Z,21.20
2023-05-19T18:55:12.035Z,20.25
2023-05-19T18:57:42.920Z,24.75
2023-05-19T19:00:16.609Z,24.83
2023-05-19T19:02:47.577Z,19.63
2023-05-19T19:05:19.310Z,15.95
2023-05-19T19:07:50.548Z,11.27
2023-05-19T19:10:27.380Z,7.85
2023-05-19T19:12:58.392Z,9.70
2023-05-19T19:15:29.735Z,8.05
2023-05-19T19:20:31.857Z,6.20
2023-05-19T19:23:06.684Z,6.05
2023-05-19T19:25:40.815Z,9.07
2023-05-19T19:28:12.047Z,5.45
2023-05-19T19:30:43.597Z,6.82
2023-05-19T19:33:14.772Z,5.13
2023-05-19T19:35:48.981Z,7.40
2023-05-19T19:38:19.922Z,4.40
2023-05-19T19:40:54.553Z,3.88
2023-05-19T19:43:25.691Z,5.43
2023-05-19T19:46:02.879Z,13.38
2023-05-19T19:48:34.242Z,8.15
2023-05-19T19:51:05.461Z,6.72
2023-05-19T19:56:12.607Z,7.72
2023-05-19T19:58:43.518Z,8.98
2023-05-19T20:01:16.282Z,10.85
2023-05-19T20:03:47.743Z,11.65
2023-05-19T20:06:19.291Z,12.10
2023-05-19T20:13:55.979Z,11.07
2023-05-19T20:16:27.370Z,12.20
2023-05-19T20:18:58.436Z,14.68
2023-05-19T20:21:29.803Z,10.10
2023-05-19T20:26:34.725Z,25.23
2023-05-19T20:29:05.558Z,20.60
2023-05-19T20:31:36.762Z,18.00
2023-05-19T20:36:38.792Z,10.05
2023-05-19T20:41:44.019Z,9.25
2023-05-19T20:44:14.939Z,10.43
2023-05-19T20:46:46.251Z,12.32
2023-05-19T20:51:48.042Z,7.20
2023-05-19T20:56:55.153Z,6.43
2023-05-19T20:59:29.098Z,7.38
2023-05-19T21:02:00.475Z,6.72
2023-05-19T21:07:02.806Z,4.40
2023-05-19T21:09:33.853Z,2.97
2023-05-19T21:12:08.492Z,9.30
2023-05-19T21:14:39.369Z,5.10
2023-05-19T21:17:10.772Z,5.53
2023-05-19T21:19:41.859Z,5.72
2023-05-19T21:22:13.133Z,8.65
2023-05-19T21:29:48.289Z,11.98
2023-05-19T21:32:19.822Z,12.75
2023-05-19T21:34:53.758Z,6.95
2023-05-19T21:37:25.185Z,6.40
2023-05-19T21:39:56.274Z,7.68
2023-05-19T21:42:31.085Z,3.20
2023-05-19T21:45:02.267Z,3.65
2023-05-19T21:47:34.460Z,5.45
2023-05-19T21:50:09.929Z,5.47
2023-05-19T21:52:42.024Z,5.65
2023-05-19T21:55:14.103Z,5.97
2023-05-19T21:57:48.372Z,4.93
2023-05-19T22:00:19.920Z,2.92
2023-05-19T22:02:51.552Z,3.88
2023-05-19T22:05:24.411Z,2.47
2023-05-19T22:08:10.121Z,2.40
2023-05-19T22:11:05.479Z,5.32
2023-05-19T22:13:41.476Z,5.18
2023-05-19T22:16:12.788Z,5.03
2023-05-19T22:18:48.128Z,2.53
2023-05-19T22:21:19.302Z,11.02
2023-05-19T22:23:50.644Z,3.08
2023-05-19T22:28:56.884Z,2.88
2023-05-19T22:31:27.782Z,4.00
2023-05-19T22:33:59.163Z,3.60
2023-05-19T22:36:31.694Z,6.30
2023-05-19T22:39:03.108Z,9.00
2023-05-19T22:41:35.240Z,3.58
2023-05-19T22:44:10.667Z,4.57
2023-05-19T22:46:41.765Z,4.13
2023-05-19T22:49:13.151Z,3.55
2023-05-19T22:51:46.186Z,2.28
2023-05-19T22:54:17.569Z,4.70
2023-05-19T22:59:23.099Z,2.45
2023-05-19T23:01:54.382Z,4.57
2023-05-19T23:04:26.120Z,5.18
2023-05-19T23:06:57.090Z,7.15
2023-05-19T23:09:28.605Z,4.97
2023-05-19T23:11:59.765Z,3.42
2023-05-19T23:14:34.019Z,3.40
2023-05-19T23:17:05.262Z,3.65
2023-05-19T23:19:39.846Z,3.80
2023-05-19T23:22:11.274Z,3.13
2023-05-19T23:24:43.093Z,2.25
2023-05-19T23:29:50.772Z,5.47
2023-05-19T23:32:21.662Z,4.57
2023-05-19T23:34:53.207Z,7.32
2023-05-19T23:37:24.284Z,2.45
2023-05-19T23:39:55.463Z,3.17
2023-05-19T23:45:00.063Z,3.25
2023-05-19T23:47:32.120Z,6.68
2023-05-19T23:50:03.329Z,2.72
2023-05-19T23:52:34.888Z,3.88
2023-05-19T23:55:06.202Z,4.35
